Track Косовец Вячеслав

Time Latitude Longitude Accuracy (66% radius in meters) Altitude (meters) Speed (km/hour) Bearing (degrees) Battery (%) GPS flag
09:14:47 55.944026 38.068191 6 178.76731831227 0.043892111629248 148.87298583984 80 1 delete
09:14:38 55.944013 38.068180 6 178.89542855825 0.27226975560188 92.90811920166 80 1 delete
09:14:26 55.944027 38.068154 4 179.12760716517 0.55377924442291 131.24406433105 80 1 delete
09:14:20 55.944031 38.068160 8 178.81416416945 0.24603363871574 54.113147735596 80 1 delete
09:14:17 55.944018 38.068144 8 178.28702357576 0.024189412593842 160.29251098633 80 1 delete
09:14:05 55.943987 38.068149 8 178.56059453586 0.41339972615242 106.83197021484 80 1 delete
09:14:02 55.943983 38.068121 8 178.93738952574 0.26794439554214 41.10835647583 80 1 delete
09:13:53 55.943983 38.068037 6 179.7705239957 0.9596933722496 74.070129394531 80 1 delete
09:13:41 55.943984 38.067991 16 181.84170647978 0.062023892998695 67.079895019531 80 1 delete
09:13:32 55.943957 38.067943 8 182.68298998485 0.80090218782425 47.642616271973 80 1 delete
09:13:29 55.943942 38.067910 6 182.93934837509 0.85309654474258 81.719779968262 80 1 delete
09:13:23 55.943927 38.067855 12 183.60742717271 0.92721331119537 71.265365600586 80 1 delete
09:13:17 55.943905 38.067705 6 185.02399467029 0.77062201499939 98.942665100098 80 1 delete
09:13:11 55.943889 38.067616 8 186.60239411144 0.33598625659943 5.7343602180481 80 1 delete
09:13:05 55.943856 38.067581 8 187.25795389951 0.49470707774162 94.418731689453 80 1 delete
09:12:59 55.943841 38.067559 12 187.28010458994 0 145.67997741699 80 1 delete
09:12:56 55.943805 38.067481 8 187.53075683081 3.1921563148499 56.600612640381 80 1 delete
09:12:53 55.943682 38.067325 8 188.20994499242 2.7900869846344 2.734979391098 80 1 delete
09:12:50 55.943559 38.067278 8 189.44798149586 2.5228714942932 22.227968215942 80 1 delete
09:12:47 55.943468 38.067128 8 189.64201244908 2.4884743690491 51.199829101562 80 1 delete
09:12:44 55.943412 38.067003 8 189.82495629777 1.4979526996613 68.163955688477 80 1 delete
09:12:38 55.943351 38.066905 12 189.64970960818 2.6659510135651 60.900604248047 80 1 delete
09:12:35 55.943257 38.066871 8 189.65029332987 2.8737988471985 338.56127929688 80 1 delete
09:12:32 55.943145 38.066940 6 189.49746273525 2.9453010559082 331.98272705078 80 1 delete
09:12:29 55.943031 38.067046 6 189.26090072105 2.9587960243225 336.98583984375 80 1 delete
09:12:26 55.942914 38.067094 6 189.18517845303 3.0204274654388 330.96640014648 80 1 delete
09:12:23 55.942806 38.067164 6 189.0916374325 3.1183340549469 326.55752563477 80 1 delete
09:12:20 55.942705 38.067257 8 189.07353138592 3.0709888935089 332.0657043457 80 1 delete
09:12:17 55.942586 38.067263 6 189.13733557652 2.9626662731171 355.92306518555 80 1 delete
09:12:14 55.942501 38.067264 8 189.24108600756 2.8512351512909 4.647876739502 80 1 delete
09:12:11 55.942426 38.067178 8 189.2475564916 2.7489440441132 343.60177612305 80 1 delete
09:12:08 55.942408 38.066995 8 189.1257553144 2.8320617675781 131.62257385254 80 1 delete
09:12:05 55.942453 38.066830 8 189.14443534538 2.7889211177826 142.48179626465 80 1 delete
09:12:02 55.942456 38.066729 6 189.61038868836 2.7208075523376 74.907409667969 80 1 delete
09:11:59 55.942392 38.066629 12 189.87420995241 2.6902632713318 52.746608734131 80 1 delete
09:11:56 55.942313 38.066543 6 190.17721405805 2.8428285121918 43.389312744141 80 1 delete
09:11:53 55.942273 38.066494 8 190.35349538146 3.3069131374359 102.8684387207 80 1 delete
09:11:50 55.942220 38.066516 12 190.63528804065 3.6710572242737 355.87692260742 80 1 delete
09:11:47 55.942100 38.066507 8 191.03928827876 3.7116494178772 15.969979286194 80 1 delete
09:11:44 55.941938 38.066439 8 192.13980917374 3.7096877098083 18.180408477783 80 1 delete
09:11:41 55.941822 38.066323 8 192.32914567736 3.9204649925232 29.087059020996 80 1 delete
09:11:38 55.941771 38.066180 12 192.61761018603 4.1244325637817 355.86804199219 80 1 delete
09:11:35 55.941746 38.065953 6 192.04885985768 4.2320880889893 131.00430297852 80 1 delete
09:11:32 55.941806 38.065695 8 191.07519390065 4.0859794616699 115.71793365479 80 1 delete
09:11:29 55.941881 38.065449 8 190.10278714209 4.1259226799011 120.83209228516 80 1 delete
09:11:26 55.941965 38.065225 8 189.80836895704 4.0394439697266 130.69073486328 80 1 delete
09:11:23 55.942047 38.065037 8 190.88141160004 3.967362165451 141.35084533691 80 1 delete
09:11:20 55.942113 38.064808 8 192.0172513839 3.7942757606506 98.325141906738 80 1 delete
09:11:17 55.942154 38.064485 8 192.69480800344 3.7554833889008 106.26075744629 80 1 delete
09:11:14 55.942179 38.064298 12 192.74708605739 3.9343008995056 103.22838592529 80 1 delete